sensor_id;sensor_type;location;lat;lon;timestamp;temperature;humidity
41678;DHT22;27364;49.026;8.712;2022-10-31T00:01:24;12.30;99.90
41678;DHT22;27364;49.026;8.712;2022-10-31T00:03:50;12.30;99.90
41678;DHT22;27364;49.026;8.712;2022-10-31T00:06:16;12.20;99.90
41678;DHT22;27364;49.026;8.712;2022-10-31T00:08:51;12.20;99.90
41678;DHT22;27364;49.026;8.712;2022-10-31T00:11:17;12.20;99.90
41678;DHT22;27364;49.026;8.712;2022-10-31T00:13:42;12.20;99.90
41678;DHT22;27364;49.026;8.712;2022-10-31T00:16:16;12.20;99.90
41678;DHT22;27364;49.026;8.712;2022-10-31T00:18:42;12.20;99.90
41678;DHT22;27364;49.026;8.712;2022-10-31T00:21:07;12.20;99.90
41678;DHT22;27364;49.026;8.712;2022-10-31T00:23:33;12.10;99.90
41678;DHT22;27364;49.026;8.712;2022-10-31T00:26:03;12.20;99.90
41678;DHT22;27364;49.026;8.712;2022-10-31T00:28:29;12.10;99.90
41678;DHT22;27364;49.026;8.712;2022-10-31T00:30:59;12.00;99.90
41678;DHT22;27364;49.026;8.712;2022-10-31T00:33:25;12.00;99.90
41678;DHT22;27364;49.026;8.712;2022-10-31T00:35:51;12.00;99.90
41678;DHT22;27364;49.026;8.712;2022-10-31T00:38:19;12.00;99.90
41678;DHT22;27364;49.026;8.712;2022-10-31T00:40:45;12.00;99.90
41678;DHT22;27364;49.026;8.712;2022-10-31T00:43:10;12.00;99.90
41678;DHT22;27364;49.026;8.712;2022-10-31T00:45:38;12.00;99.90
41678;DHT22;27364;49.026;8.712;2022-10-31T00:48:04;12.00;99.90
41678;DHT22;27364;49.026;8.712;2022-10-31T00:50:30;12.00;99.90
41678;DHT22;27364;49.026;8.712;2022-10-31T00:52:55;12.00;99.90
41678;DHT22;27364;49.026;8.712;2022-10-31T00:55:22;12.10;99.90
41678;DHT22;27364;49.026;8.712;2022-10-31T00:57:49;12.10;99.90
41678;DHT22;27364;49.026;8.712;2022-10-31T01:00:15;12.10;99.90
41678;DHT22;27364;49.026;8.712;2022-10-31T01:02:42;12.10;99.90
41678;DHT22;27364;49.026;8.712;2022-10-31T01:05:08;12.10;99.90
41678;DHT22;27364;49.026;8.712;2022-10-31T01:07:38;12.10;99.90
41678;DHT22;27364;49.026;8.712;2022-10-31T01:10:05;12.00;99.90
41678;DHT22;27364;49.026;8.712;2022-10-31T01:12:39;11.90;99.90
41678;DHT22;27364;49.026;8.712;2022-10-31T01:15:06;11.80;99.90
41678;DHT22;27364;49.026;8.712;2022-10-31T01:17:32;11.70;99.90
41678;DHT22;27364;49.026;8.712;2022-10-31T01:19:58;11.70;99.90
41678;DHT22;27364;49.026;8.712;2022-10-31T01:22:23;11.70;99.90
41678;DHT22;27364;49.026;8.712;2022-10-31T01:24:49;11.70;99.90
41678;DHT22;27364;49.026;8.712;2022-10-31T01:27:14;11.70;99.90
41678;DHT22;27364;49.026;8.712;2022-10-31T01:29:40;11.70;99.90
41678;DHT22;27364;49.026;8.712;2022-10-31T01:32:05;11.70;99.90
41678;DHT22;27364;49.026;8.712;2022-10-31T01:34:31;11.70;99.90
41678;DHT22;27364;49.026;8.712;2022-10-31T01:36:56;11.60;99.90
41678;DHT22;27364;49.026;8.712;2022-10-31T01:39:22;11.70;99.90
41678;DHT22;27364;49.026;8.712;2022-10-31T01:41:50;11.80;99.90
41678;DHT22;27364;49.026;8.712;2022-10-31T01:46:57;11.90;99.90
41678;DHT22;27364;49.026;8.712;2022-10-31T01:49:34;11.90;99.90
41678;DHT22;27364;49.026;8.712;2022-10-31T01:52:04;11.70;99.90
41678;DHT22;27364;49.026;8.712;2022-10-31T01:54:37;11.60;99.90
41678;DHT22;27364;49.026;8.712;2022-10-31T01:57:05;11.50;99.90
41678;DHT22;27364;49.026;8.712;2022-10-31T01:59:34;11.40;99.90
41678;DHT22;27364;49.026;8.712;2022-10-31T02:02:01;11.30;99.90
41678;DHT22;27364;49.026;8.712;2022-10-31T02:04:27;11.30;99.90
41678;DHT22;27364;49.026;8.712;2022-10-31T02:06:59;11.30;99.90
41678;DHT22;27364;49.026;8.712;2022-10-31T02:09:29;11.30;99.90
41678;DHT22;27364;49.026;8.712;2022-10-31T02:11:57;11.20;99.90
41678;DHT22;27364;49.026;8.712;2022-10-31T02:14:26;11.30;99.90
41678;DHT22;27364;49.026;8.712;2022-10-31T02:16:54;11.30;99.90
41678;DHT22;27364;49.026;8.712;2022-10-31T02:22:20;11.40;99.90
41678;DHT22;27364;49.026;8.712;2022-10-31T02:30:27;11.20;99.90
41678;DHT22;27364;49.026;8.712;2022-10-31T02:38:29;11.10;99.90
41678;DHT22;27364;49.026;8.712;2022-10-31T02:41:29;11.10;99.90
41678;DHT22;27364;49.026;8.712;2022-10-31T02:44:07;11.10;99.90
41678;DHT22;27364;49.026;8.712;2022-10-31T02:46:54;11.20;99.90
41678;DHT22;27364;49.026;8.712;2022-10-31T02:52:24;11.10;99.90
41678;DHT22;27364;49.026;8.712;2022-10-31T02:54:50;11.10;99.90
41678;DHT22;27364;49.026;8.712;2022-10-31T02:57:24;11.10;99.90
41678;DHT22;27364;49.026;8.712;2022-10-31T02:59:55;11.10;99.90
41678;DHT22;27364;49.026;8.712;2022-10-31T03:10:40;11.20;99.90
41678;DHT22;27364;49.026;8.712;2022-10-31T03:13:14;11.20;99.90
41678;DHT22;27364;49.026;8.712;2022-10-31T03:15:45;11.20;99.90
41678;DHT22;27364;49.026;8.712;2022-10-31T03:18:29;11.20;99.90
41678;DHT22;27364;49.026;8.712;2022-10-31T03:23:44;11.30;99.90
41678;DHT22;27364;49.026;8.712;2022-10-31T03:26:11;11.30;99.90
41678;DHT22;27364;49.026;8.712;2022-10-31T03:28:51;11.20;99.90
41678;DHT22;27364;49.026;8.712;2022-10-31T03:31:19;11.10;99.90
41678;DHT22;27364;49.026;8.712;2022-10-31T03:33:48;11.00;99.90
41678;DHT22;27364;49.026;8.712;2022-10-31T03:36:15;11.00;99.90
41678;DHT22;27364;49.026;8.712;2022-10-31T03:38:43;11.00;99.90
41678;DHT22;27364;49.026;8.712;2022-10-31T03:41:19;11.00;99.90
41678;DHT22;27364;49.026;8.712;2022-10-31T03:43:54;11.00;99.90
41678;DHT22;27364;49.026;8.712;2022-10-31T03:46:22;10.90;99.90
41678;DHT22;27364;49.026;8.712;2022-10-31T03:48:49;11.00;99.90
41678;DHT22;27364;49.026;8.712;2022-10-31T03:51:26;11.00;99.90
41678;DHT22;27364;49.026;8.712;2022-10-31T03:53:57;11.00;99.90
41678;DHT22;27364;49.026;8.712;2022-10-31T03:59:10;11.00;99.90
41678;DHT22;27364;49.026;8.712;2022-10-31T04:01:43;11.20;99.90
41678;DHT22;27364;49.026;8.712;2022-10-31T04:04:13;11.30;99.90
41678;DHT22;27364;49.026;8.712;2022-10-31T04:06:41;11.20;99.90
41678;DHT22;27364;49.026;8.712;2022-10-31T04:09:09;11.20;99.90
41678;DHT22;27364;49.026;8.712;2022-10-31T04:11:38;11.20;99.90
41678;DHT22;27364;49.026;8.712;2022-10-31T04:14:05;11.20;99.90
41678;DHT22;27364;49.026;8.712;2022-10-31T04:16:31;11.30;99.90
41678;DHT22;27364;49.026;8.712;2022-10-31T04:18:57;11.20;99.90
41678;DHT22;27364;49.026;8.712;2022-10-31T04:21:30;11.10;99.90
41678;DHT22;27364;49.026;8.712;2022-10-31T04:23:55;10.90;99.90
41678;DHT22;27364;49.026;8.712;2022-10-31T04:26:22;11.00;99.90
41678;DHT22;27364;49.026;8.712;2022-10-31T04:28:48;11.00;99.90
41678;DHT22;27364;49.026;8.712;2022-10-31T04:31:14;11.00;99.90
41678;DHT22;27364;49.026;8.712;2022-10-31T04:33:40;11.00;99.90
41678;DHT22;27364;49.026;8.712;2022-10-31T04:36:05;11.10;99.90
41678;DHT22;27364;49.026;8.712;2022-10-31T04:38:31;11.00;99.90
41678;DHT22;27364;49.026;8.712;2022-10-31T04:40:56;11.00;99.90
41678;DHT22;27364;49.026;8.712;2022-10-31T04:43:22;11.10;99.90
41678;DHT22;27364;49.026;8.712;2022-10-31T04:45:48;11.10;99.90
41678;DHT22;27364;49.026;8.712;2022-10-31T04:48:13;10.90;99.90
41678;DHT22;27364;49.026;8.712;2022-10-31T04:50:40;10.90;99.90
41678;DHT22;27364;49.026;8.712;2022-10-31T04:53:06;10.90;99.90
41678;DHT22;27364;49.026;8.712;2022-10-31T04:55:31;10.90;99.90
41678;DHT22;27364;49.026;8.712;2022-10-31T04:57:57;10.90;99.90
41678;DHT22;27364;49.026;8.712;2022-10-31T05:00:23;10.90;99.90
41678;DHT22;27364;49.026;8.712;2022-10-31T05:02:52;10.90;99.90
41678;DHT22;27364;49.026;8.712;2022-10-31T05:05:20;10.90;99.90
41678;DHT22;27364;49.026;8.712;2022-10-31T05:07:48;10.80;99.90
41678;DHT22;27364;49.026;8.712;2022-10-31T05:10:16;10.70;99.90
41678;DHT22;27364;49.026;8.712;2022-10-31T05:12:54;10.50;99.90
41678;DHT22;27364;49.026;8.712;2022-10-31T05:15:21;10.40;99.90
41678;DHT22;27364;49.026;8.712;2022-10-31T05:17:47;10.30;99.90
41678;DHT22;27364;49.026;8.712;2022-10-31T05:20:14;10.40;99.90
41678;DHT22;27364;49.026;8.712;2022-10-31T05:22:51;10.30;99.90
41678;DHT22;27364;49.026;8.712;2022-10-31T05:25:18;10.40;99.90
41678;DHT22;27364;49.026;8.712;2022-10-31T05:27:45;10.50;99.90
41678;DHT22;27364;49.026;8.712;2022-10-31T05:30:13;10.60;99.90
41678;DHT22;27364;49.026;8.712;2022-10-31T05:32:41;10.60;99.90
41678;DHT22;27364;49.026;8.712;2022-10-31T05:35:08;10.50;99.90
41678;DHT22;27364;49.026;8.712;2022-10-31T05:37:37;10.50;99.90
41678;DHT22;27364;49.026;8.712;2022-10-31T05:40:04;10.50;99.90
41678;DHT22;27364;49.026;8.712;2022-10-31T05:42:31;10.40;99.90
41678;DHT22;27364;49.026;8.712;2022-10-31T05:44:56;10.40;99.90
41678;DHT22;27364;49.026;8.712;2022-10-31T05:47:22;10.40;99.90
41678;DHT22;27364;49.026;8.712;2022-10-31T05:49:48;10.40;99.90
41678;DHT22;27364;49.026;8.712;2022-10-31T05:52:14;10.40;99.90
41678;DHT22;27364;49.026;8.712;2022-10-31T05:54:39;10.30;99.90
41678;DHT22;27364;49.026;8.712;2022-10-31T05:57:06;10.20;99.90
41678;DHT22;27364;49.026;8.712;2022-10-31T05:59:31;10.10;99.90
41678;DHT22;27364;49.026;8.712;2022-10-31T06:01:57;10.10;99.90
41678;DHT22;27364;49.026;8.712;2022-10-31T06:04:23;10.10;99.90
41678;DHT22;27364;49.026;8.712;2022-10-31T06:06:53;10.10;99.90
41678;DHT22;27364;49.026;8.712;2022-10-31T06:09:19;10.20;99.90
41678;DHT22;27364;49.026;8.712;2022-10-31T06:11:44;10.30;99.90
41678;DHT22;27364;49.026;8.712;2022-10-31T06:14:11;10.30;99.90
41678;DHT22;27364;49.026;8.712;2022-10-31T06:16:37;10.30;99.90
41678;DHT22;27364;49.026;8.712;2022-10-31T06:19:03;10.30;99.90
41678;DHT22;27364;49.026;8.712;2022-10-31T06:21:29;10.30;99.90
41678;DHT22;27364;49.026;8.712;2022-10-31T06:23:54;10.20;99.90
41678;DHT22;27364;49.026;8.712;2022-10-31T06:26:20;10.20;99.90
41678;DHT22;27364;49.026;8.712;2022-10-31T06:28:45;10.10;99.90
41678;DHT22;27364;49.026;8.712;2022-10-31T06:31:11;10.10;99.90
41678;DHT22;27364;49.026;8.712;2022-10-31T06:33:36;10.10;99.90
41678;DHT22;27364;49.026;8.712;2022-10-31T06:36:03;10.10;99.90
41678;DHT22;27364;49.026;8.712;2022-10-31T06:38:29;10.20;99.90
41678;DHT22;27364;49.026;8.712;2022-10-31T06:40:54;10.10;99.90
41678;DHT22;27364;49.026;8.712;2022-10-31T06:43:21;10.10;99.90
41678;DHT22;27364;49.026;8.712;2022-10-31T06:45:47;10.10;99.90
41678;DHT22;27364;49.026;8.712;2022-10-31T06:48:13;10.10;99.90
41678;DHT22;27364;49.026;8.712;2022-10-31T06:50:39;10.20;99.90
41678;DHT22;27364;49.026;8.712;2022-10-31T06:53:05;10.20;99.90
41678;DHT22;27364;49.026;8.712;2022-10-31T06:55:37;10.30;99.90
41678;DHT22;27364;49.026;8.712;2022-10-31T06:58:03;10.50;99.90
41678;DHT22;27364;49.026;8.712;2022-10-31T07:00:29;10.50;99.90
41678;DHT22;27364;49.026;8.712;2022-10-31T07:03:00;10.60;99.90
41678;DHT22;27364;49.026;8.712;2022-10-31T07:05:26;10.80;99.90
41678;DHT22;27364;49.026;8.712;2022-10-31T07:08:01;10.80;99.90
41678;DHT22;27364;49.026;8.712;2022-10-31T07:10:29;10.80;99.90
41678;DHT22;27364;49.026;8.712;2022-10-31T07:13:04;10.80;99.90
41678;DHT22;27364;49.026;8.712;2022-10-31T07:15:34;10.80;99.90
41678;DHT22;27364;49.026;8.712;2022-10-31T07:18:03;10.90;99.90
41678;DHT22;27364;49.026;8.712;2022-10-31T07:20:30;11.10;99.90
41678;DHT22;27364;49.026;8.712;2022-10-31T07:22:56;11.20;99.90
41678;DHT22;27364;49.026;8.712;2022-10-31T07:25:21;11.20;99.90
41678;DHT22;27364;49.026;8.712;2022-10-31T07:27:55;11.30;99.90
41678;DHT22;27364;49.026;8.712;2022-10-31T07:30:23;11.30;99.90
41678;DHT22;27364;49.026;8.712;2022-10-31T07:32:50;11.40;99.90
41678;DHT22;27364;49.026;8.712;2022-10-31T07:35:22;11.40;99.90
41678;DHT22;27364;49.026;8.712;2022-10-31T07:37:49;11.50;99.90
41678;DHT22;27364;49.026;8.712;2022-10-31T07:40:18;11.50;99.90
41678;DHT22;27364;49.026;8.712;2022-10-31T07:42:51;11.60;99.90
41678;DHT22;27364;49.026;8.712;2022-10-31T07:45:20;11.70;99.90
41678;DHT22;27364;49.026;8.712;2022-10-31T07:47:51;11.70;99.90
41678;DHT22;27364;49.026;8.712;2022-10-31T07:50:21;11.60;99.90
41678;DHT22;27364;49.026;8.712;2022-10-31T07:52:47;11.60;99.90
41678;DHT22;27364;49.026;8.712;2022-10-31T07:55:14;11.70;99.90
41678;DHT22;27364;49.026;8.712;2022-10-31T07:57:42;11.70;99.90
41678;DHT22;27364;49.026;8.712;2022-10-31T08:00:09;11.70;99.90
41678;DHT22;27364;49.026;8.712;2022-10-31T08:02:35;11.70;99.90
41678;DHT22;27364;49.026;8.712;2022-10-31T08:05:01;11.80;99.90
41678;DHT22;27364;49.026;8.712;2022-10-31T08:07:29;11.80;99.90
41678;DHT22;27364;49.026;8.712;2022-10-31T08:10:01;11.90;99.90
41678;DHT22;27364;49.026;8.712;2022-10-31T08:12:26;12.00;99.90
41678;DHT22;27364;49.026;8.712;2022-10-31T08:14:52;12.10;99.90
41678;DHT22;27364;49.026;8.712;2022-10-31T08:17:17;12.10;99.90
41678;DHT22;27364;49.026;8.712;2022-10-31T08:19:43;12.20;99.90
41678;DHT22;27364;49.026;8.712;2022-10-31T08:22:10;12.30;99.90
41678;DHT22;27364;49.026;8.712;2022-10-31T08:24:35;12.40;99.90
41678;DHT22;27364;49.026;8.712;2022-10-31T08:27:02;12.50;99.90
41678;DHT22;27364;49.026;8.712;2022-10-31T08:29:27;12.60;99.90
41678;DHT22;27364;49.026;8.712;2022-10-31T08:31:53;12.60;99.90
41678;DHT22;27364;49.026;8.712;2022-10-31T08:34:18;12.70;99.90
41678;DHT22;27364;49.026;8.712;2022-10-31T08:36:46;12.80;99.90
41678;DHT22;27364;49.026;8.712;2022-10-31T08:39:11;12.90;99.90
41678;DHT22;27364;49.026;8.712;2022-10-31T08:41:40;12.90;99.90
41678;DHT22;27364;49.026;8.712;2022-10-31T08:44:07;12.90;99.90
41678;DHT22;27364;49.026;8.712;2022-10-31T08:46:32;13.00;99.90
41678;DHT22;27364;49.026;8.712;2022-10-31T08:48:58;13.00;99.90
41678;DHT22;27364;49.026;8.712;2022-10-31T08:51:24;13.00;99.90
41678;DHT22;27364;49.026;8.712;2022-10-31T08:53:51;13.10;99.90
41678;DHT22;27364;49.026;8.712;2022-10-31T08:56:20;13.20;99.90
41678;DHT22;27364;49.026;8.712;2022-10-31T08:58:46;13.20;99.90
41678;DHT22;27364;49.026;8.712;2022-10-31T09:01:12;13.40;99.90
41678;DHT22;27364;49.026;8.712;2022-10-31T09:03:39;13.50;99.90
41678;DHT22;27364;49.026;8.712;2022-10-31T09:06:06;13.50;99.90
41678;DHT22;27364;49.026;8.712;2022-10-31T09:08:35;13.60;99.90
41678;DHT22;27364;49.026;8.712;2022-10-31T09:11:03;13.70;99.90
41678;DHT22;27364;49.026;8.712;2022-10-31T09:13:30;13.70;99.90
41678;DHT22;27364;49.026;8.712;2022-10-31T09:15:56;13.80;99.90
41678;DHT22;27364;49.026;8.712;2022-10-31T09:18:26;13.90;99.90
41678;DHT22;27364;49.026;8.712;2022-10-31T09:20:57;13.90;99.90
41678;DHT22;27364;49.026;8.712;2022-10-31T09:23:23;14.00;99.90
41678;DHT22;27364;49.026;8.712;2022-10-31T09:25:51;14.00;99.90
41678;DHT22;27364;49.026;8.712;2022-10-31T09:28:20;14.10;99.90
41678;DHT22;27364;49.026;8.712;2022-10-31T09:30:48;14.20;99.90
41678;DHT22;27364;49.026;8.712;2022-10-31T09:33:14;14.30;99.90
41678;DHT22;27364;49.026;8.712;2022-10-31T09:35:40;14.30;99.90
41678;DHT22;27364;49.026;8.712;2022-10-31T09:38:09;14.40;99.90
41678;DHT22;27364;49.026;8.712;2022-10-31T09:40:40;14.40;99.90
41678;DHT22;27364;49.026;8.712;2022-10-31T09:46:07;14.50;99.90
41678;DHT22;27364;49.026;8.712;2022-10-31T09:51:34;14.70;99.90
41678;DHT22;27364;49.026;8.712;2022-10-31T09:56:59;14.80;99.90
41678;DHT22;27364;49.026;8.712;2022-10-31T09:59:33;14.80;99.90
41678;DHT22;27364;49.026;8.712;2022-10-31T10:02:13;14.90;99.90
41678;DHT22;27364;49.026;8.712;2022-10-31T10:04:44;14.90;99.90
41678;DHT22;27364;49.026;8.712;2022-10-31T10:10:16;15.10;99.90
41678;DHT22;27364;49.026;8.712;2022-10-31T10:15:47;15.20;99.90
41678;DHT22;27364;49.026;8.712;2022-10-31T10:18:37;15.20;99.90
41678;DHT22;27364;49.026;8.712;2022-10-31T10:29:50;15.40;99.90
41678;DHT22;27364;49.026;8.712;2022-10-31T10:32:24;15.40;99.90
41678;DHT22;27364;49.026;8.712;2022-10-31T10:35:09;15.40;99.90
41678;DHT22;27364;49.026;8.712;2022-10-31T10:37:41;15.40;99.90
41678;DHT22;27364;49.026;8.712;2022-10-31T10:40:25;15.40;99.90
41678;DHT22;27364;49.026;8.712;2022-10-31T10:45:53;15.50;99.90
41678;DHT22;27364;49.026;8.712;2022-10-31T10:48:47;15.50;99.90
41678;DHT22;27364;49.026;8.712;2022-10-31T10:52:14;15.50;99.90
41678;DHT22;27364;49.026;8.712;2022-10-31T10:59:59;15.60;99.90
41678;DHT22;27364;49.026;8.712;2022-10-31T11:02:31;15.60;99.90
41678;DHT22;27364;49.026;8.712;2022-10-31T11:04:58;15.60;99.90
41678;DHT22;27364;49.026;8.712;2022-10-31T11:07:38;15.60;99.90
41678;DHT22;27364;49.026;8.712;2022-10-31T11:10:05;15.60;99.90
41678;DHT22;27364;49.026;8.712;2022-10-31T11:12:38;15.60;99.90
41678;DHT22;27364;49.026;8.712;2022-10-31T11:15:18;15.70;99.90
41678;DHT22;27364;49.026;8.712;2022-10-31T11:17:48;15.70;99.90
41678;DHT22;27364;49.026;8.712;2022-10-31T11:22:42;15.70;99.90
41678;DHT22;27364;49.026;8.712;2022-10-31T11:25:21;15.80;99.90
41678;DHT22;27364;49.026;8.712;2022-10-31T11:27:47;15.80;99.90
41678;DHT22;27364;49.026;8.712;2022-10-31T11:30:13;15.80;99.90
41678;DHT22;27364;49.026;8.712;2022-10-31T11:32:49;15.80;99.90
41678;DHT22;27364;49.026;8.712;2022-10-31T11:35:17;15.80;99.90
41678;DHT22;27364;49.026;8.712;2022-10-31T11:37:45;15.90;99.90
41678;DHT22;27364;49.026;8.712;2022-10-31T11:40:23;15.90;99.90
41678;DHT22;27364;49.026;8.712;2022-10-31T11:42:51;16.00;99.90
41678;DHT22;27364;49.026;8.712;2022-10-31T11:47:56;15.90;99.90
41678;DHT22;27364;49.026;8.712;2022-10-31T11:52:53;16.00;99.90
41678;DHT22;27364;49.026;8.712;2022-10-31T11:55:46;16.00;99.90
41678;DHT22;27364;49.026;8.712;2022-10-31T11:58:38;16.00;99.90
41678;DHT22;27364;49.026;8.712;2022-10-31T12:01:04;16.00;99.90
41678;DHT22;27364;49.026;8.712;2022-10-31T12:03:41;16.10;99.90
41678;DHT22;27364;49.026;8.712;2022-10-31T12:06:26;16.10;99.90
41678;DHT22;27364;49.026;8.712;2022-10-31T12:08:53;16.20;99.90
41678;DHT22;27364;49.026;8.712;2022-10-31T12:16:39;16.40;99.90
41678;DHT22;27364;49.026;8.712;2022-10-31T12:22:08;16.50;99.90
41678;DHT22;27364;49.026;8.712;2022-10-31T12:30:19;16.60;99.90
41678;DHT22;27364;49.026;8.712;2022-10-31T12:38:41;17.00;99.90
41678;DHT22;27364;49.026;8.712;2022-10-31T12:41:29;17.00;99.90
41678;DHT22;27364;49.026;8.712;2022-10-31T12:44:11;16.90;99.90
41678;DHT22;27364;49.026;8.712;2022-10-31T12:46:50;16.80;99.90
41678;DHT22;27364;49.026;8.712;2022-10-31T12:49:35;16.70;99.90
41678;DHT22;27364;49.026;8.712;2022-10-31T12:55:19;16.70;99.90
41678;DHT22;27364;49.026;8.712;2022-10-31T13:00:44;16.70;99.90
41678;DHT22;27364;49.026;8.712;2022-10-31T13:03:25;16.60;99.90
41678;DHT22;27364;49.026;8.712;2022-10-31T13:05:58;16.60;99.90
41678;DHT22;27364;49.026;8.712;2022-10-31T13:08:34;16.60;99.90
41678;DHT22;27364;49.026;8.712;2022-10-31T13:11:15;16.60;99.90
41678;DHT22;27364;49.026;8.712;2022-10-31T13:14:23;16.50;99.90
41678;DHT22;27364;49.026;8.712;2022-10-31T13:16:51;16.50;99.90
41678;DHT22;27364;49.026;8.712;2022-10-31T13:19:23;16.60;99.90
41678;DHT22;27364;49.026;8.712;2022-10-31T13:22:04;16.70;99.90
41678;DHT22;27364;49.026;8.712;2022-10-31T13:24:48;17.00;99.90
41678;DHT22;27364;49.026;8.712;2022-10-31T13:27:28;17.60;99.90
41678;DHT22;27364;49.026;8.712;2022-10-31T13:30:06;17.90;99.90
41678;DHT22;27364;49.026;8.712;2022-10-31T13:37:53;18.40;99.90
41678;DHT22;27364;49.026;8.712;2022-10-31T13:40:42;18.70;99.90
41678;DHT22;27364;49.026;8.712;2022-10-31T13:45:52;19.00;99.90
41678;DHT22;27364;49.026;8.712;2022-10-31T13:51:04;18.90;99.90
41678;DHT22;27364;49.026;8.712;2022-10-31T13:53:56;18.90;99.90
41678;DHT22;27364;49.026;8.712;2022-10-31T13:56:25;19.00;99.90
41678;DHT22;27364;49.026;8.712;2022-10-31T14:01:27;18.90;99.90
41678;DHT22;27364;49.026;8.712;2022-10-31T14:06:23;18.60;99.90
41678;DHT22;27364;49.026;8.712;2022-10-31T14:09:00;18.50;99.90
41678;DHT22;27364;49.026;8.712;2022-10-31T14:11:26;18.40;99.90
41678;DHT22;27364;49.026;8.712;2022-10-31T14:13:56;18.20;99.90
41678;DHT22;27364;49.026;8.712;2022-10-31T14:16:30;18.10;99.90
41678;DHT22;27364;49.026;8.712;2022-10-31T14:19:16;18.00;99.90
41678;DHT22;27364;49.026;8.712;2022-10-31T14:21:49;17.90;99.90
41678;DHT22;27364;49.026;8.712;2022-10-31T14:26:52;17.80;99.90
41678;DHT22;27364;49.026;8.712;2022-10-31T14:29:20;17.60;99.90
41678;DHT22;27364;49.026;8.712;2022-10-31T14:46:17;17.60;99.90
41678;DHT22;27364;49.026;8.712;2022-10-31T14:48:57;17.70;99.90
41678;DHT22;27364;49.026;8.712;2022-10-31T14:51:39;17.60;99.90
41678;DHT22;27364;49.026;8.712;2022-10-31T14:54:08;17.50;99.90
41678;DHT22;27364;49.026;8.712;2022-10-31T14:56:39;17.40;99.90
41678;DHT22;27364;49.026;8.712;2022-10-31T14:59:11;17.30;99.90
41678;DHT22;27364;49.026;8.712;2022-10-31T15:01:39;17.20;99.90
41678;DHT22;27364;49.026;8.712;2022-10-31T15:07:02;17.10;99.90
41678;DHT22;27364;49.026;8.712;2022-10-31T15:09:32;17.00;99.90
41678;DHT22;27364;49.026;8.712;2022-10-31T15:12:31;17.00;99.90
41678;DHT22;27364;49.026;8.712;2022-10-31T15:15:10;16.90;99.90
41678;DHT22;27364;49.026;8.712;2022-10-31T15:17:35;16.90;99.90
41678;DHT22;27364;49.026;8.712;2022-10-31T15:20:10;16.80;99.90
41678;DHT22;27364;49.026;8.712;2022-10-31T15:22:35;16.70;99.90
41678;DHT22;27364;49.026;8.712;2022-10-31T15:25:02;16.70;99.90
41678;DHT22;27364;49.026;8.712;2022-10-31T15:27:27;16.60;99.90
41678;DHT22;27364;49.026;8.712;2022-10-31T15:29:55;16.60;99.90
41678;DHT22;27364;49.026;8.712;2022-10-31T15:32:26;16.60;99.90
41678;DHT22;27364;49.026;8.712;2022-10-31T15:34:53;16.60;99.90
41678;DHT22;27364;49.026;8.712;2022-10-31T15:37:20;16.60;99.90
41678;DHT22;27364;49.026;8.712;2022-10-31T15:39:48;16.50;99.90
41678;DHT22;27364;49.026;8.712;2022-10-31T15:42:29;16.50;99.90
41678;DHT22;27364;49.026;8.712;2022-10-31T15:45:05;16.50;99.90
41678;DHT22;27364;49.026;8.712;2022-10-31T15:47:46;16.50;99.90
41678;DHT22;27364;49.026;8.712;2022-10-31T15:50:31;16.40;99.90
41678;DHT22;27364;49.026;8.712;2022-10-31T15:52:58;16.40;99.90
41678;DHT22;27364;49.026;8.712;2022-10-31T15:55:27;16.30;99.90
41678;DHT22;27364;49.026;8.712;2022-10-31T15:58:01;16.30;99.90
41678;DHT22;27364;49.026;8.712;2022-10-31T16:00:32;16.30;99.90
41678;DHT22;27364;49.026;8.712;2022-10-31T16:05:45;16.20;99.90
41678;DHT22;27364;49.026;8.712;2022-10-31T16:11:25;16.10;99.90
41678;DHT22;27364;49.026;8.712;2022-10-31T16:13:55;16.10;99.90
41678;DHT22;27364;49.026;8.712;2022-10-31T16:16:22;16.10;99.90
41678;DHT22;27364;49.026;8.712;2022-10-31T16:18:50;16.00;99.90
41678;DHT22;27364;49.026;8.712;2022-10-31T16:21:22;16.00;99.90
41678;DHT22;27364;49.026;8.712;2022-10-31T16:23:52;15.90;99.90
41678;DHT22;27364;49.026;8.712;2022-10-31T16:26:19;15.90;99.90
41678;DHT22;27364;49.026;8.712;2022-10-31T16:28:56;15.90;99.90
41678;DHT22;27364;49.026;8.712;2022-10-31T16:31:36;15.80;99.90
41678;DHT22;27364;49.026;8.712;2022-10-31T16:34:15;15.80;99.90
41678;DHT22;27364;49.026;8.712;2022-10-31T16:36:42;15.80;99.90
41678;DHT22;27364;49.026;8.712;2022-10-31T16:39:09;15.80;99.90
41678;DHT22;27364;49.026;8.712;2022-10-31T16:41:39;15.70;99.90
41678;DHT22;27364;49.026;8.712;2022-10-31T16:44:14;15.60;99.90
41678;DHT22;27364;49.026;8.712;2022-10-31T16:46:40;15.60;99.90
41678;DHT22;27364;49.026;8.712;2022-10-31T16:49:09;15.50;99.90
41678;DHT22;27364;49.026;8.712;2022-10-31T16:51:34;15.50;99.90
41678;DHT22;27364;49.026;8.712;2022-10-31T16:54:00;15.40;99.90
41678;DHT22;27364;49.026;8.712;2022-10-31T16:56:31;15.40;99.90
41678;DHT22;27364;49.026;8.712;2022-10-31T16:58:59;15.40;99.90
41678;DHT22;27364;49.026;8.712;2022-10-31T17:01:26;15.40;99.90
41678;DHT22;27364;49.026;8.712;2022-10-31T17:03:52;15.40;99.90
41678;DHT22;27364;49.026;8.712;2022-10-31T17:06:18;15.40;99.90
41678;DHT22;27364;49.026;8.712;2022-10-31T17:08:44;15.40;99.90
41678;DHT22;27364;49.026;8.712;2022-10-31T17:11:15;15.40;99.90
41678;DHT22;27364;49.026;8.712;2022-10-31T17:13:41;15.40;99.90
41678;DHT22;27364;49.026;8.712;2022-10-31T17:16:07;15.30;99.90
41678;DHT22;27364;49.026;8.712;2022-10-31T17:18:33;15.30;99.90
41678;DHT22;27364;49.026;8.712;2022-10-31T17:21:01;15.30;99.90
41678;DHT22;27364;49.026;8.712;2022-10-31T17:23:27;15.30;99.90
41678;DHT22;27364;49.026;8.712;2022-10-31T17:25:54;15.30;99.90
41678;DHT22;27364;49.026;8.712;2022-10-31T17:28:20;15.30;99.90
41678;DHT22;27364;49.026;8.712;2022-10-31T17:30:46;15.20;99.90
41678;DHT22;27364;49.026;8.712;2022-10-31T17:33:13;15.30;99.90
41678;DHT22;27364;49.026;8.712;2022-10-31T17:35:40;15.20;99.90
41678;DHT22;27364;49.026;8.712;2022-10-31T17:38:06;15.20;99.90
41678;DHT22;27364;49.026;8.712;2022-10-31T17:40:31;15.30;99.90
41678;DHT22;27364;49.026;8.712;2022-10-31T17:42:57;15.20;99.90
41678;DHT22;27364;49.026;8.712;2022-10-31T17:45:25;15.20;99.90
41678;DHT22;27364;49.026;8.712;2022-10-31T17:47:52;15.20;99.90
41678;DHT22;27364;49.026;8.712;2022-10-31T17:50:23;15.20;99.90
41678;DHT22;27364;49.026;8.712;2022-10-31T17:52:49;15.10;99.90
41678;DHT22;27364;49.026;8.712;2022-10-31T17:55:15;15.20;99.90
41678;DHT22;27364;49.026;8.712;2022-10-31T17:57:41;15.10;99.90
41678;DHT22;27364;49.026;8.712;2022-10-31T18:00:11;15.00;99.90
41678;DHT22;27364;49.026;8.712;2022-10-31T18:02:37;15.00;99.90
41678;DHT22;27364;49.026;8.712;2022-10-31T18:05:04;15.00;99.90
41678;DHT22;27364;49.026;8.712;2022-10-31T18:07:31;15.00;99.90